sensor_id;sensor_type;location;lat;lon;timestamp;pressure;altitude;pressure_sealevel;temperature;humidity
13952;BME280;39535;52.192;9.886;2022-10-04T00:00:44;101289.88;;;11.32;91.92
13952;BME280;39535;52.192;9.886;2022-10-04T00:03:17;101283.81;;;11.27;92.45
13952;BME280;39535;52.192;9.886;2022-10-04T00:05:49;101279.47;;;11.21;92.56
13952;BME280;39535;52.192;9.886;2022-10-04T00:08:23;101280.34;;;11.25;92.92
13952;BME280;39535;52.192;9.886;2022-10-04T00:11:00;101268.28;;;11.05;93.75
13952;BME280;39535;52.192;9.886;2022-10-04T00:13:29;101243.97;;;10.99;94.36
13952;BME280;39535;52.192;9.886;2022-10-04T00:15:57;101225.59;;;11.08;94.49
13952;BME280;39535;52.192;9.886;2022-10-04T00:18:28;101223.94;;;10.98;94.14
13952;BME280;39535;52.192;9.886;2022-10-04T00:21:04;101219.59;;;10.98;94.57
13952;BME280;39535;52.192;9.886;2022-10-04T00:23:44;101212.50;;;11.11;94.33
13952;BME280;39535;52.192;9.886;2022-10-04T00:29:37;101221.13;;;11.24;94.02
13952;BME280;39535;52.192;9.886;2022-10-04T00:32:28;101220.22;;;11.22;94.38
13952;BME280;39535;52.192;9.886;2022-10-04T00:34:57;101227.16;;;11.27;94.01
13952;BME280;39535;52.192;9.886;2022-10-04T00:37:25;101235.81;;;11.34;93.80
13952;BME280;39535;52.192;9.886;2022-10-04T00:39:58;101241.03;;;11.36;93.52
13952;BME280;39535;52.192;9.886;2022-10-04T00:45:22;101257.59;;;11.35;93.36
13952;BME280;39535;52.192;9.886;2022-10-04T00:48:09;101251.47;;;11.37;93.30
13952;BME280;39535;52.192;9.886;2022-10-04T00:50:42;101263.72;;;11.32;92.68
13952;BME280;39535;52.192;9.886;2022-10-04T00:53:13;101253.22;;;11.37;93.31
13952;BME280;39535;52.192;9.886;2022-10-04T00:55:46;101235.78;;;11.37;93.34
13952;BME280;39535;52.192;9.886;2022-10-04T00:58:19;101231.41;;;11.38;93.60
13952;BME280;39535;52.192;9.886;2022-10-04T01:00:51;101223.56;;;11.38;93.74
13952;BME280;39535;52.192;9.886;2022-10-04T01:03:22;101210.50;;;11.39;94.18
13952;BME280;39535;52.192;9.886;2022-10-04T01:05:54;101205.25;;;11.39;94.28
13952;BME280;39535;52.192;9.886;2022-10-04T01:08:27;101203.56;;;11.38;94.41
13952;BME280;39535;52.192;9.886;2022-10-04T01:10:58;101206.13;;;11.41;94.56
13952;BME280;39535;52.192;9.886;2022-10-04T01:13:29;101208.72;;;11.41;94.38
13952;BME280;39535;52.192;9.886;2022-10-04T01:16:02;101206.09;;;11.43;94.27
13952;BME280;39535;52.192;9.886;2022-10-04T01:18:32;101198.34;;;11.37;94.24
13952;BME280;39535;52.192;9.886;2022-10-04T01:21:03;101192.19;;;11.42;94.61
13952;BME280;39535;52.192;9.886;2022-10-04T01:23:50;101197.34;;;11.48;94.31
13952;BME280;39535;52.192;9.886;2022-10-04T01:26:38;101205.19;;;11.47;94.36
13952;BME280;39535;52.192;9.886;2022-10-04T01:29:08;101194.66;;;11.53;94.13
13952;BME280;39535;52.192;9.886;2022-10-04T01:31:37;101204.25;;;11.54;93.66
13952;BME280;39535;52.192;9.886;2022-10-04T01:34:05;101199.97;;;11.48;94.45
13952;BME280;39535;52.192;9.886;2022-10-04T01:36:33;101179.03;;;11.50;94.07
13952;BME280;39535;52.192;9.886;2022-10-04T01:39:02;101180.72;;;11.52;94.27
13952;BME280;39535;52.192;9.886;2022-10-04T01:41:42;101191.28;;;11.45;93.78
13952;BME280;39535;52.192;9.886;2022-10-04T01:44:16;101179.03;;;11.48;94.20
13952;BME280;39535;52.192;9.886;2022-10-04T01:46:45;101178.97;;;11.55;94.05
13952;BME280;39535;52.192;9.886;2022-10-04T01:49:16;101192.13;;;11.48;93.59
13952;BME280;39535;52.192;9.886;2022-10-04T01:51:48;101188.56;;;11.56;94.02
13952;BME280;39535;52.192;9.886;2022-10-04T01:54:24;101220.06;;;11.42;93.14
13952;BME280;39535;52.192;9.886;2022-10-04T01:57:00;101215.66;;;11.45;92.83
13952;BME280;39535;52.192;9.886;2022-10-04T01:59:33;101206.81;;;11.57;93.38
13952;BME280;39535;52.192;9.886;2022-10-04T02:02:05;101177.25;;;11.53;94.11
13952;BME280;39535;52.192;9.886;2022-10-04T02:04:37;101169.41;;;11.53;94.86
13952;BME280;39535;52.192;9.886;2022-10-04T02:07:10;101173.81;;;11.48;94.48
13952;BME280;39535;52.192;9.886;2022-10-04T02:09:42;101172.91;;;11.49;94.94
13952;BME280;39535;52.192;9.886;2022-10-04T02:12:13;101165.91;;;11.51;94.96
13952;BME280;39535;52.192;9.886;2022-10-04T02:14:44;101165.88;;;11.56;95.06
13952;BME280;39535;52.192;9.886;2022-10-04T02:17:12;101165.81;;;11.61;94.69
13952;BME280;39535;52.192;9.886;2022-10-04T02:19:41;101179.00;;;11.51;94.18
13952;BME280;39535;52.192;9.886;2022-10-04T02:22:10;101156.38;;;11.49;94.40
13952;BME280;39535;52.192;9.886;2022-10-04T02:24:42;101163.28;;;11.53;94.25
13952;BME280;39535;52.192;9.886;2022-10-04T02:27:09;101159.75;;;11.59;94.14
13952;BME280;39535;52.192;9.886;2022-10-04T02:29:36;101152.84;;;11.51;94.56
13952;BME280;39535;52.192;9.886;2022-10-04T02:32:04;101157.22;;;11.49;94.18
13952;BME280;39535;52.192;9.886;2022-10-04T02:35:01;101152.81;;;11.58;94.60
13952;BME280;39535;52.192;9.886;2022-10-04T02:37:29;101155.38;;;11.59;94.68
13952;BME280;39535;52.192;9.886;2022-10-04T02:40:03;101163.25;;;11.58;93.84
13952;BME280;39535;52.192;9.886;2022-10-04T02:42:37;101169.28;;;11.64;93.97
13952;BME280;39535;52.192;9.886;2022-10-04T02:45:11;101171.03;;;11.64;93.75
13952;BME280;39535;52.192;9.886;2022-10-04T02:47:43;101161.44;;;11.63;94.66
13952;BME280;39535;52.192;9.886;2022-10-04T02:50:22;101156.22;;;11.63;94.43
13952;BME280;39535;52.192;9.886;2022-10-04T02:52:55;101145.81;;;11.57;94.49
13952;BME280;39535;52.192;9.886;2022-10-04T02:55:26;101151.03;;;11.58;94.46
13952;BME280;39535;52.192;9.886;2022-10-04T02:57:53;101144.03;;;11.60;94.37
13952;BME280;39535;52.192;9.886;2022-10-04T03:00:23;101137.13;;;11.56;94.41
13952;BME280;39535;52.192;9.886;2022-10-04T03:03:11;101121.44;;;11.55;94.90
13952;BME280;39535;52.192;9.886;2022-10-04T03:05:40;101120.50;;;11.60;95.16
13952;BME280;39535;52.192;9.886;2022-10-04T03:08:08;101118.72;;;11.64;94.86
13952;BME280;39535;52.192;9.886;2022-10-04T03:10:37;101123.13;;;11.60;94.74
13952;BME280;39535;52.192;9.886;2022-10-04T03:13:07;101123.13;;;11.62;94.57
13952;BME280;39535;52.192;9.886;2022-10-04T03:15:33;101130.06;;;11.61;94.55
13952;BME280;39535;52.192;9.886;2022-10-04T03:18:00;101144.13;;;11.56;93.74
13952;BME280;39535;52.192;9.886;2022-10-04T03:20:27;101138.81;;;11.62;94.24
13952;BME280;39535;52.192;9.886;2022-10-04T03:22:54;101144.88;;;11.64;94.07
13952;BME280;39535;52.192;9.886;2022-10-04T03:25:24;101148.34;;;11.67;93.95
13952;BME280;39535;52.192;9.886;2022-10-04T03:27:55;101148.34;;;11.66;93.61
13952;BME280;39535;52.192;9.886;2022-10-04T03:30:26;101143.13;;;11.64;93.91
13952;BME280;39535;52.192;9.886;2022-10-04T03:32:53;101143.13;;;11.64;93.51
13952;BME280;39535;52.192;9.886;2022-10-04T03:35:27;101133.50;;;11.68;93.90
13952;BME280;39535;52.192;9.886;2022-10-04T03:37:56;101142.22;;;11.65;93.84
13952;BME280;39535;52.192;9.886;2022-10-04T03:40:26;101142.19;;;11.68;93.92
13952;BME280;39535;52.192;9.886;2022-10-04T03:42:55;101144.81;;;11.67;94.17
13952;BME280;39535;52.192;9.886;2022-10-04T03:45:24;101137.81;;;11.69;93.90
13952;BME280;39535;52.192;9.886;2022-10-04T03:47:55;101137.91;;;11.64;94.15
13952;BME280;39535;52.192;9.886;2022-10-04T03:50:26;101141.34;;;11.66;94.04
13952;BME280;39535;52.192;9.886;2022-10-04T03:52:56;101147.50;;;11.64;93.97
13952;BME280;39535;52.192;9.886;2022-10-04T03:55:29;101137.91;;;11.63;94.23
13952;BME280;39535;52.192;9.886;2022-10-04T03:57:59;101135.28;;;11.66;93.92
13952;BME280;39535;52.192;9.886;2022-10-04T04:00:26;101150.97;;;11.64;93.69
13952;BME280;39535;52.192;9.886;2022-10-04T04:02:56;101153.59;;;11.64;93.39
13952;BME280;39535;52.192;9.886;2022-10-04T04:05:26;101149.19;;;11.66;93.24
13952;BME280;39535;52.192;9.886;2022-10-04T04:08:02;101131.81;;;11.62;94.01
13952;BME280;39535;52.192;9.886;2022-10-04T04:10:30;101120.50;;;11.62;94.09
13952;BME280;39535;52.192;9.886;2022-10-04T04:13:08;101111.81;;;11.60;94.31
13952;BME280;39535;52.192;9.886;2022-10-04T04:15:37;101103.13;;;11.56;94.80
13952;BME280;39535;52.192;9.886;2022-10-04T04:18:12;101107.44;;;11.62;94.43
13952;BME280;39535;52.192;9.886;2022-10-04T04:20:40;101116.16;;;11.59;93.98
13952;BME280;39535;52.192;9.886;2022-10-04T04:23:17;101112.66;;;11.60;94.17
13952;BME280;39535;52.192;9.886;2022-10-04T04:26:21;101116.97;;;11.63;93.74
13952;BME280;39535;52.192;9.886;2022-10-04T04:28:53;101120.50;;;11.62;93.89
13952;BME280;39535;52.192;9.886;2022-10-04T04:31:23;101115.28;;;11.60;93.82
13952;BME280;39535;52.192;9.886;2022-10-04T04:33:55;101122.22;;;11.63;93.54
13952;BME280;39535;52.192;9.886;2022-10-04T04:36:26;101121.34;;;11.64;93.84
13952;BME280;39535;52.192;9.886;2022-10-04T04:38:53;101125.66;;;11.66;93.67
13952;BME280;39535;52.192;9.886;2022-10-04T04:41:37;101134.44;;;11.62;93.05
13952;BME280;39535;52.192;9.886;2022-10-04T04:44:15;101137.00;;;11.65;92.98
13952;BME280;39535;52.192;9.886;2022-10-04T04:46:43;101143.13;;;11.66;92.98
13952;BME280;39535;52.192;9.886;2022-10-04T04:49:10;101145.75;;;11.61;92.89
13952;BME280;39535;52.192;9.886;2022-10-04T04:51:37;101133.59;;;11.59;93.13
13952;BME280;39535;52.192;9.886;2022-10-04T04:54:06;101141.41;;;11.62;92.73
13952;BME280;39535;52.192;9.886;2022-10-04T04:56:33;101139.69;;;11.61;92.83
13952;BME280;39535;52.192;9.886;2022-10-04T04:59:02;101139.72;;;11.58;92.56
13952;BME280;39535;52.192;9.886;2022-10-04T05:01:35;101140.59;;;11.55;92.68
13952;BME280;39535;52.192;9.886;2022-10-04T05:04:04;101131.91;;;11.53;93.32
13952;BME280;39535;52.192;9.886;2022-10-04T05:06:32;101129.28;;;11.55;93.41
13952;BME280;39535;52.192;9.886;2022-10-04T05:08:59;101133.69;;;11.49;93.51
13952;BME280;39535;52.192;9.886;2022-10-04T05:11:28;101140.69;;;11.49;93.40
13952;BME280;39535;52.192;9.886;2022-10-04T05:13:58;101129.38;;;11.48;93.26
13952;BME280;39535;52.192;9.886;2022-10-04T05:16:35;101132.81;;;11.53;93.43
13952;BME280;39535;52.192;9.886;2022-10-04T05:19:06;101133.75;;;11.48;93.42
13952;BME280;39535;52.192;9.886;2022-10-04T05:21:34;101136.38;;;11.46;93.59
13952;BME280;39535;52.192;9.886;2022-10-04T05:24:08;101136.34;;;11.48;93.77
13952;BME280;39535;52.192;9.886;2022-10-04T05:26:36;101130.22;;;11.47;93.88
13952;BME280;39535;52.192;9.886;2022-10-04T05:29:07;101130.22;;;11.47;93.68
13952;BME280;39535;52.192;9.886;2022-10-04T05:31:44;101123.38;;;11.39;94.69
13952;BME280;39535;52.192;9.886;2022-10-04T05:34:22;101106.91;;;11.30;94.98
13952;BME280;39535;52.192;9.886;2022-10-04T05:40:07;101098.09;;;11.38;94.97
13952;BME280;39535;52.192;9.886;2022-10-04T05:42:42;101097.16;;;11.43;94.62
13952;BME280;39535;52.192;9.886;2022-10-04T05:45:16;101101.53;;;11.46;94.92
13952;BME280;39535;52.192;9.886;2022-10-04T05:47:44;101106.69;;;11.47;94.49
13952;BME280;39535;52.192;9.886;2022-10-04T05:50:17;101106.69;;;11.47;94.87
13952;BME280;39535;52.192;9.886;2022-10-04T05:52:46;101105.84;;;11.45;95.08
13952;BME280;39535;52.192;9.886;2022-10-04T05:55:22;101100.63;;;11.45;94.74
13952;BME280;39535;52.192;9.886;2022-10-04T05:58:12;101103.22;;;11.48;94.88
13952;BME280;39535;52.192;9.886;2022-10-04T06:00:56;101101.47;;;11.47;95.11
13952;BME280;39535;52.192;9.886;2022-10-04T06:03:35;101104.09;;;11.47;94.78
13952;BME280;39535;52.192;9.886;2022-10-04T06:06:15;101102.31;;;11.51;94.55
13952;BME280;39535;52.192;9.886;2022-10-04T06:11:42;101095.28;;;11.56;94.72
13952;BME280;39535;52.192;9.886;2022-10-04T06:14:29;101097.84;;;11.61;94.41
13952;BME280;39535;52.192;9.886;2022-10-04T06:17:15;101107.44;;;11.59;94.63
13952;BME280;39535;52.192;9.886;2022-10-04T06:20:14;101110.06;;;11.59;94.88
13952;BME280;39535;52.192;9.886;2022-10-04T06:22:46;101115.28;;;11.62;94.37
13952;BME280;39535;52.192;9.886;2022-10-04T06:25:24;101115.22;;;11.65;94.95
13952;BME280;39535;52.192;9.886;2022-10-04T06:27:56;101124.78;;;11.67;94.75
13952;BME280;39535;52.192;9.886;2022-10-04T06:30:31;101123.03;;;11.66;95.17
13952;BME280;39535;52.192;9.886;2022-10-04T06:33:22;101125.59;;;11.71;94.78
13952;BME280;39535;52.192;9.886;2022-10-04T06:36:21;101122.97;;;11.72;94.97
13952;BME280;39535;52.192;9.886;2022-10-04T06:39:08;101131.63;;;11.78;95.05
13952;BME280;39535;52.192;9.886;2022-10-04T06:42:08;101133.31;;;11.83;94.88
13952;BME280;39535;52.192;9.886;2022-10-04T06:44:46;101145.50;;;11.84;94.47
13952;BME280;39535;52.192;9.886;2022-10-04T06:47:29;101151.56;;;11.86;94.58
13952;BME280;39535;52.192;9.886;2022-10-04T06:50:05;101141.94;;;11.88;94.82
13952;BME280;39535;52.192;9.886;2022-10-04T06:52:47;101135.81;;;11.94;94.62
13952;BME280;39535;52.192;9.886;2022-10-04T06:55:49;101164.47;;;12.03;94.10
13952;BME280;39535;52.192;9.886;2022-10-04T06:58:50;101172.28;;;12.06;93.99
13952;BME280;39535;52.192;9.886;2022-10-04T07:01:26;101184.50;;;12.04;93.83
13952;BME280;39535;52.192;9.886;2022-10-04T07:03:58;101177.50;;;12.06;94.26
13952;BME280;39535;52.192;9.886;2022-10-04T07:06:29;101173.13;;;12.07;94.25
13952;BME280;39535;52.192;9.886;2022-10-04T07:08:58;101180.19;;;12.03;93.30
13952;BME280;39535;52.192;9.886;2022-10-04T07:11:35;101193.28;;;12.00;93.07
13952;BME280;39535;52.192;9.886;2022-10-04T07:14:11;101179.25;;;12.07;93.50
13952;BME280;39535;52.192;9.886;2022-10-04T07:16:44;101168.72;;;12.12;93.67
13952;BME280;39535;52.192;9.886;2022-10-04T07:19:32;101164.31;;;12.16;93.84
13952;BME280;39535;52.192;9.886;2022-10-04T07:22:11;101172.16;;;12.16;92.89
13952;BME280;39535;52.192;9.886;2022-10-04T07:24:47;101178.22;;;12.18;92.90
13952;BME280;39535;52.192;9.886;2022-10-04T07:27:20;101189.63;;;12.15;93.16
13952;BME280;39535;52.192;9.886;2022-10-04T07:29:53;101168.59;;;12.21;93.08
13952;BME280;39535;52.192;9.886;2022-10-04T07:32:21;101155.44;;;12.26;93.54
13952;BME280;39535;52.192;9.886;2022-10-04T07:34:52;101144.84;;;12.34;94.03
13952;BME280;39535;52.192;9.886;2022-10-04T07:37:20;101119.59;;;12.31;94.74
13952;BME280;39535;52.192;9.886;2022-10-04T07:39:53;101110.72;;;12.40;95.09
13952;BME280;39535;52.192;9.886;2022-10-04T07:42:27;101106.34;;;12.39;95.19
13952;BME280;39535;52.192;9.886;2022-10-04T07:45:02;101131.47;;;12.50;93.47
13952;BME280;39535;52.192;9.886;2022-10-04T07:47:30;101249.38;;;12.49;89.05
13952;BME280;39535;52.192;9.886;2022-10-04T07:49:57;101281.47;;;12.62;88.50
13952;BME280;39535;52.192;9.886;2022-10-04T07:52:46;101331.03;;;12.77;87.58
13952;BME280;39535;52.192;9.886;2022-10-04T07:55:22;101382.44;;;12.86;85.74
13952;BME280;39535;52.192;9.886;2022-10-04T07:57:57;101454.03;;;12.91;83.73
13952;BME280;39535;52.192;9.886;2022-10-04T08:00:38;101500.25;;;12.97;83.30
13952;BME280;39535;52.192;9.886;2022-10-04T08:03:19;101536.13;;;12.90;82.69
13952;BME280;39535;52.192;9.886;2022-10-04T08:05:53;101521.28;;;12.90;83.50
13952;BME280;39535;52.192;9.886;2022-10-04T08:08:36;101497.59;;;13.00;83.65
13952;BME280;39535;52.192;9.886;2022-10-04T08:11:15;101495.78;;;13.05;83.54
13952;BME280;39535;52.192;9.886;2022-10-04T08:13:51;101468.72;;;13.03;84.54
13952;BME280;39535;52.192;9.886;2022-10-04T08:16:33;101469.59;;;13.02;83.88
13952;BME280;39535;52.192;9.886;2022-10-04T08:19:15;101461.66;;;13.08;84.18
13952;BME280;39535;52.192;9.886;2022-10-04T08:21:53;101447.69;;;13.07;84.18
13952;BME280;39535;52.192;9.886;2022-10-04T08:24:28;101458.28;;;13.00;83.39
13952;BME280;39535;52.192;9.886;2022-10-04T08:27:09;101442.72;;;12.86;83.72
13952;BME280;39535;52.192;9.886;2022-10-04T08:29:55;101401.72;;;12.83;85.33
13952;BME280;39535;52.192;9.886;2022-10-04T08:32:37;101384.13;;;12.90;85.09
13952;BME280;39535;52.192;9.886;2022-10-04T08:35:28;101401.63;;;12.89;84.54
13952;BME280;39535;52.192;9.886;2022-10-04T08:38:07;101382.38;;;12.92;84.81
13952;BME280;39535;52.192;9.886;2022-10-04T08:40:57;101361.31;;;12.98;86.39
13952;BME280;39535;52.192;9.886;2022-10-04T08:43:57;101320.41;;;12.88;86.84
13952;BME280;39535;52.192;9.886;2022-10-04T08:47:01;101386.81;;;12.87;84.60
13952;BME280;39535;52.192;9.886;2022-10-04T08:49:49;101428.59;;;12.98;83.21
13952;BME280;39535;52.192;9.886;2022-10-04T08:52:41;101413.63;;;13.07;83.38
13952;BME280;39535;52.192;9.886;2022-10-04T08:58:15;101401.09;;;13.31;84.78
13952;BME280;39535;52.192;9.886;2022-10-04T09:00:57;101446.44;;;13.38;81.49
13952;BME280;39535;52.192;9.886;2022-10-04T09:03:59;101511.03;;;13.46;80.21
13952;BME280;39535;52.192;9.886;2022-10-04T09:06:42;101545.84;;;13.58;80.17
13952;BME280;39535;52.192;9.886;2022-10-04T09:09:38;101564.16;;;13.61;79.28
13952;BME280;39535;52.192;9.886;2022-10-04T09:12:27;101570.25;;;13.63;79.62
13952;BME280;39535;52.192;9.886;2022-10-04T09:15:19;101550.94;;;13.68;79.83
13952;BME280;39535;52.192;9.886;2022-10-04T09:17:54;101548.34;;;13.65;79.22
13952;BME280;39535;52.192;9.886;2022-10-04T09:20:38;101567.50;;;13.72;79.41
13952;BME280;39535;52.192;9.886;2022-10-04T09:23:17;101553.47;;;13.73;79.73
13952;BME280;39535;52.192;9.886;2022-10-04T09:25:58;101528.91;;;13.79;80.34
13952;BME280;39535;52.192;9.886;2022-10-04T09:28:48;101542.00;;;13.82;78.74
13952;BME280;39535;52.192;9.886;2022-10-04T09:31:31;101557.69;;;13.85;79.32
13952;BME280;39535;52.192;9.886;2022-10-04T09:37:18;101542.66;;;13.98;79.21
13952;BME280;39535;52.192;9.886;2022-10-04T09:39:54;101581.22;;;13.93;78.31
13952;BME280;39535;52.192;9.886;2022-10-04T09:42:44;101587.31;;;13.95;77.93
13952;BME280;39535;52.192;9.886;2022-10-04T09:45:43;101585.59;;;13.92;78.32
13952;BME280;39535;52.192;9.886;2022-10-04T09:48:28;101590.94;;;13.86;78.08
13952;BME280;39535;52.192;9.886;2022-10-04T09:51:12;101568.06;;;13.96;78.27
13952;BME280;39535;52.192;9.886;2022-10-04T09:53:57;101560.94;;;14.02;77.95
13952;BME280;39535;52.192;9.886;2022-10-04T09:56:49;101585.41;;;14.06;77.40
13952;BME280;39535;52.192;9.886;2022-10-04T09:59:33;101581.84;;;14.08;77.65
13952;BME280;39535;52.192;9.886;2022-10-04T10:02:28;101585.31;;;14.10;76.97
13952;BME280;39535;52.192;9.886;2022-10-04T10:05:24;101570.38;;;14.16;77.02
13952;BME280;39535;52.192;9.886;2022-10-04T10:07:59;101569.38;;;14.23;77.22
13952;BME280;39535;52.192;9.886;2022-10-04T10:10:37;101573.63;;;14.30;76.25
13952;BME280;39535;52.192;9.886;2022-10-04T10:13:32;101590.13;;;14.38;75.94
13952;BME280;39535;52.192;9.886;2022-10-04T10:16:36;101577.53;;;14.60;77.40
13952;BME280;39535;52.192;9.886;2022-10-04T10:19:26;101593.03;;;14.76;74.48
13952;BME280;39535;52.192;9.886;2022-10-04T10:22:15;101701.50;;;14.88;72.62
13952;BME280;39535;52.192;9.886;2022-10-04T10:25:06;101699.50;;;15.03;72.69
13952;BME280;39535;52.192;9.886;2022-10-04T10:27:50;101708.84;;;15.19;72.96
13952;BME280;39535;52.192;9.886;2022-10-04T10:30:23;101722.84;;;15.20;72.99
13952;BME280;39535;52.192;9.886;2022-10-04T10:33:15;101740.50;;;15.13;71.14
13952;BME280;39535;52.192;9.886;2022-10-04T10:35:57;101760.84;;;15.02;70.77
13952;BME280;39535;52.192;9.886;2022-10-04T10:38:45;101727.47;;;15.08;72.55
13952;BME280;39535;52.192;9.886;2022-10-04T10:41:29;101681.94;;;15.03;73.68
13952;BME280;39535;52.192;9.886;2022-10-04T10:44:23;101687.34;;;14.96;70.99
13952;BME280;39535;52.192;9.886;2022-10-04T10:47:06;101753.16;;;14.89;70.35
13952;BME280;39535;52.192;9.886;2022-10-04T10:49:45;101754.00;;;14.92;70.90
13952;BME280;39535;52.192;9.886;2022-10-04T10:52:34;101747.81;;;14.96;71.79
13952;BME280;39535;52.192;9.886;2022-10-04T10:55:24;101760.13;;;14.92;70.03
13952;BME280;39535;52.192;9.886;2022-10-04T10:58:35;101787.22;;;14.97;69.28
13952;BME280;39535;52.192;9.886;2022-10-04T11:04:12;101792.41;;;15.03;68.77
13952;BME280;39535;52.192;9.886;2022-10-04T11:07:02;101772.13;;;15.10;69.60
13952;BME280;39535;52.192;9.886;2022-10-04T11:09:58;101737.91;;;15.10;69.71
13952;BME280;39535;52.192;9.886;2022-10-04T11:12:46;101704.50;;;15.17;69.35
13952;BME280;39535;52.192;9.886;2022-10-04T11:15:42;101757.88;;;15.22;68.88
13952;BME280;39535;52.192;9.886;2022-10-04T11:21:48;101715.41;;;15.45;70.64
13952;BME280;39535;52.192;9.886;2022-10-04T11:24:32;101721.41;;;15.52;68.86
13952;BME280;39535;52.192;9.886;2022-10-04T11:27:15;101732.59;;;15.63;68.91
13952;BME280;39535;52.192;9.886;2022-10-04T11:29:57;101767.75;;;15.60;67.00
13952;BME280;39535;52.192;9.886;2022-10-04T11:32:55;101758.00;;;16.12;67.44
13952;BME280;39535;52.192;9.886;2022-10-04T11:35:43;101803.72;;;16.52;65.07
13952;BME280;39535;52.192;9.886;2022-10-04T11:38:28;101830.31;;;16.83;65.58
13952;BME280;39535;52.192;9.886;2022-10-04T11:41:08;101836.75;;;17.77;64.56
13952;BME280;39535;52.192;9.886;2022-10-04T11:43:54;101940.91;;;19.28;59.48
13952;BME280;39535;52.192;9.886;2022-10-04T11:46:34;102120.34;;;20.36;54.74
13952;BME280;39535;52.192;9.886;2022-10-04T11:49:15;102249.78;;;20.81;53.28
13952;BME280;39535;52.192;9.886;2022-10-04T11:52:00;102318.13;;;21.81;49.25
13952;BME280;39535;52.192;9.886;2022-10-04T11:57:43;102405.53;;;23.32;47.48
13952;BME280;39535;52.192;9.886;2022-10-04T12:00:16;102441.41;;;23.67;46.17
13952;BME280;39535;52.192;9.886;2022-10-04T12:03:26;102502.72;;;23.67;42.31
13952;BME280;39535;52.192;9.886;2022-10-04T12:06:20;102491.06;;;24.53;42.83
13952;BME280;39535;52.192;9.886;2022-10-04T12:09:03;102469.22;;;24.44;43.08
13952;BME280;39535;52.192;9.886;2022-10-04T12:11:51;102465.66;;;24.24;42.23
13952;BME280;39535;52.192;9.886;2022-10-04T12:14:52;102453.97;;;23.21;43.51
13952;BME280;39535;52.192;9.886;2022-10-04T12:17:37;102334.44;;;24.14;44.25
13952;BME280;39535;52.192;9.886;2022-10-04T12:20:36;102319.03;;;24.40;41.17
13952;BME280;39535;52.192;9.886;2022-10-04T12:23:30;102320.16;;;24.34;41.76
13952;BME280;39535;52.192;9.886;2022-10-04T12:29:12;102271.84;;;24.77;41.59
13952;BME280;39535;52.192;9.886;2022-10-04T12:31:48;102267.59;;;25.27;41.80
13952;BME280;39535;52.192;9.886;2022-10-04T12:34:22;102310.94;;;23.83;40.87
13952;BME280;39535;52.192;9.886;2022-10-04T12:37:02;102249.41;;;23.67;41.71
13952;BME280;39535;52.192;9.886;2022-10-04T12:39:42;102203.59;;;23.78;43.21
13952;BME280;39535;52.192;9.886;2022-10-04T12:42:23;102159.63;;;23.68;43.07
13952;BME280;39535;52.192;9.886;2022-10-04T12:45:22;102138.28;;;23.68;41.63
13952;BME280;39535;52.192;9.886;2022-10-04T12:47:58;102174.03;;;23.24;41.90
13952;BME280;39535;52.192;9.886;2022-10-04T12:50:40;102136.78;;;23.43;43.67
13952;BME280;39535;52.192;9.886;2022-10-04T12:53:17;102131.50;;;23.02;43.69
13952;BME280;39535;52.192;9.886;2022-10-04T12:55:58;102101.34;;;23.20;43.55
13952;BME280;39535;52.192;9.886;2022-10-04T12:58:32;102082.00;;;23.36;43.41
13952;BME280;39535;52.192;9.886;2022-10-04T13:01:15;102090.66;;;23.02;42.77
13952;BME280;39535;52.192;9.886;2022-10-04T13:04:03;102091.19;;;22.89;42.76
13952;BME280;39535;52.192;9.886;2022-10-04T13:06:39;102077.81;;;23.11;44.46
13952;BME280;39535;52.192;9.886;2022-10-04T13:09:14;102079.81;;;22.86;43.43
13952;BME280;39535;52.192;9.886;2022-10-04T13:11:59;102054.91;;;23.26;43.65
13952;BME280;39535;52.192;9.886;2022-10-04T13:14:49;102055.72;;;23.28;43.76
13952;BME280;39535;52.192;9.886;2022-10-04T13:17:33;102046.63;;;22.93;44.09
13952;BME280;39535;52.192;9.886;2022-10-04T13:20:19;102057.06;;;22.78;43.87
13952;BME280;39535;52.192;9.886;2022-10-04T13:22:55;102031.53;;;22.11;45.34
13952;BME280;39535;52.192;9.886;2022-10-04T13:25:46;101983.28;;;21.32;47.46
13952;BME280;39535;52.192;9.886;2022-10-04T13:28:24;101893.03;;;20.63;47.83
13952;BME280;39535;52.192;9.886;2022-10-04T13:30:58;101835.41;;;20.43;49.67
13952;BME280;39535;52.192;9.886;2022-10-04T13:33:35;101788.50;;;19.46;50.96
13952;BME280;39535;52.192;9.886;2022-10-04T13:36:10;101716.53;;;19.35;51.13
13952;BME280;39535;52.192;9.886;2022-10-04T13:38:55;101688.81;;;19.69;51.93
13952;BME280;39535;52.192;9.886;2022-10-04T13:41:35;101689.13;;;20.96;49.31
13952;BME280;39535;52.192;9.886;2022-10-04T13:44:31;101785.91;;;22.69;45.87
13952;BME280;39535;52.192;9.886;2022-10-04T13:47:15;101923.00;;;22.79;43.92
13952;BME280;39535;52.192;9.886;2022-10-04T13:50:01;101988.59;;;23.39;42.94
13952;BME280;39535;52.192;9.886;2022-10-04T13:52:41;102027.41;;;23.83;42.17
13952;BME280;39535;52.192;9.886;2022-10-04T13:55:32;102094.31;;;25.83;39.92
13952;BME280;39535;52.192;9.886;2022-10-04T13:58:27;102209.56;;;25.29;37.81
13952;BME280;39535;52.192;9.886;2022-10-04T14:04:12;102127.03;;;24.35;40.85
13952;BME280;39535;52.192;9.886;2022-10-04T14:07:04;102112.28;;;23.14;42.04
13952;BME280;39535;52.192;9.886;2022-10-04T14:12:57;101887.81;;;21.51;47.57
13952;BME280;39535;52.192;9.886;2022-10-04T14:15:45;101808.44;;;20.32;48.79
13952;BME280;39535;52.192;9.886;2022-10-04T14:18:41;101689.41;;;20.24;50.71
13952;BME280;39535;52.192;9.886;2022-10-04T14:21:46;101616.63;;;20.31;50.42
13952;BME280;39535;52.192;9.886;2022-10-04T14:24:42;101619.91;;;20.58;50.70
13952;BME280;39535;52.192;9.886;2022-10-04T14:27:39;101646.44;;;20.58;50.71